createdAt,value
2022-08-10T00:01:39.867Z,18.90
2022-08-10T00:04:07.956Z,18.80
2022-08-10T00:06:37.095Z,18.80
2022-08-10T00:09:06.492Z,18.90
2022-08-10T00:11:34.501Z,18.90
2022-08-10T00:14:02.578Z,18.90
2022-08-10T00:16:30.658Z,18.90
2022-08-10T00:18:58.635Z,18.80
2022-08-10T00:21:27.187Z,18.70
2022-08-10T00:23:55.466Z,18.70
2022-08-10T00:26:24.951Z,18.70
2022-08-10T00:28:54.140Z,18.60
2022-08-10T00:31:22.101Z,18.60
2022-08-10T00:33:50.061Z,18.60
2022-08-10T00:36:18.091Z,18.60
2022-08-10T00:38:46.058Z,18.50
2022-08-10T00:41:14.185Z,18.40
2022-08-10T00:43:43.530Z,18.40
2022-08-10T00:46:11.518Z,18.40
2022-08-10T00:48:39.543Z,18.30
2022-08-10T00:51:07.768Z,18.30
2022-08-10T00:53:35.754Z,18.30
2022-08-10T00:57:12.868Z,18.30
2022-08-10T00:58:53.477Z,18.20
2022-08-10T01:02:08.279Z,18.30
2022-08-10T01:04:54.658Z,18.20
2022-08-10T01:07:15.626Z,18.10
2022-08-10T01:09:57.231Z,18.10
2022-08-10T01:12:40.452Z,18.00
2022-08-10T01:15:19.083Z,18.00
2022-08-10T01:17:54.593Z,17.90
2022-08-10T01:20:31.189Z,18.00
2022-08-10T01:23:35.723Z,17.90
2022-08-10T01:26:30.977Z,17.90
2022-08-10T01:29:17.867Z,17.80
2022-08-10T01:31:52.023Z,17.80
2022-08-10T01:34:25.135Z,17.60
2022-08-10T01:36:56.664Z,17.50
2022-08-10T01:39:38.992Z,17.30
2022-08-10T01:42:11.874Z,17.20
2022-08-10T01:44:45.449Z,17.00
2022-08-10T01:47:36.984Z,17.00
2022-08-10T01:50:08.987Z,17.10
2022-08-10T01:52:43.038Z,17.10
2022-08-10T01:55:14.435Z,17.20
2022-08-10T01:57:44.373Z,17.20
2022-08-10T02:00:14.095Z,17.10
2022-08-10T02:02:46.147Z,17.00
2022-08-10T02:05:16.920Z,16.90
2022-08-10T02:07:47.880Z,16.90
2022-08-10T02:10:19.647Z,16.90
2022-08-10T02:12:49.573Z,16.90
2022-08-10T02:15:21.023Z,16.90
2022-08-10T02:17:59.718Z,16.90
2022-08-10T02:20:33.474Z,16.80
2022-08-10T02:23:06.287Z,16.70
2022-08-10T02:25:41.123Z,16.60
2022-08-10T02:28:30.597Z,16.60
2022-08-10T02:31:02.963Z,16.60
2022-08-10T02:33:38.086Z,16.40
2022-08-10T02:36:08.691Z,16.40
2022-08-10T02:38:59.300Z,16.50
2022-08-10T02:45:14.469Z,16.50
2022-08-10T02:45:29.084Z,16.30
2022-08-10T02:47:29.541Z,16.30
2022-08-10T02:50:24.427Z,16.30
2022-08-10T02:52:58.595Z,16.40
2022-08-10T02:55:32.974Z,16.30
2022-08-10T02:58:12.521Z,16.40
2022-08-10T03:00:49.291Z,16.50
2022-08-10T03:03:20.933Z,16.40
2022-08-10T03:05:54.932Z,16.50
2022-08-10T03:08:29.482Z,16.40
2022-08-10T03:11:00.576Z,16.40
2022-08-10T03:13:30.424Z,16.50
2022-08-10T03:16:01.444Z,16.50
2022-08-10T03:18:32.954Z,16.50
2022-08-10T03:21:03.270Z,16.40
2022-08-10T03:23:31.754Z,16.30
2022-08-10T03:26:01.057Z,16.30
2022-08-10T03:28:32.779Z,16.30
2022-08-10T03:31:02.489Z,16.30
2022-08-10T03:33:33.275Z,16.40
2022-08-10T03:36:41.826Z,16.50
2022-08-10T03:38:52.506Z,16.20
2022-08-10T03:41:24.687Z,16.10
2022-08-10T03:43:54.469Z,16.00
2022-08-10T03:46:25.811Z,16.10
2022-08-10T03:48:57.511Z,16.10
2022-08-10T03:51:29.827Z,16.10
2022-08-10T03:54:04.470Z,16.10
2022-08-10T03:56:38.043Z,16.20
2022-08-10T03:59:07.147Z,16.20
2022-08-10T04:02:45.386Z,16.20
2022-08-10T04:04:25.274Z,16.10
2022-08-10T04:06:56.695Z,16.10
2022-08-10T04:09:54.353Z,16.00
2022-08-10T04:12:18.065Z,15.80
2022-08-10T04:14:51.573Z,15.80
2022-08-10T04:18:04.514Z,15.80
2022-08-10T04:20:14.687Z,15.70
2022-08-10T04:22:45.844Z,15.80
2022-08-10T04:25:16.258Z,15.80
2022-08-10T04:27:44.959Z,15.80
2022-08-10T04:30:13.704Z,15.70
2022-08-10T04:32:42.609Z,15.70
2022-08-10T04:35:11.843Z,15.60
2022-08-10T04:37:47.177Z,15.70
2022-08-10T04:40:24.882Z,15.60
2022-08-10T04:43:04.506Z,15.70
2022-08-10T04:45:47.640Z,15.70
2022-08-10T04:48:42.272Z,15.60
2022-08-10T04:51:11.233Z,15.50
2022-08-10T04:54:02.845Z,15.70
2022-08-10T04:56:36.923Z,15.70
2022-08-10T04:59:06.238Z,15.70
2022-08-10T05:02:22.357Z,15.80
2022-08-10T05:04:34.659Z,15.70
2022-08-10T05:07:10.488Z,15.70
2022-08-10T05:10:02.949Z,15.70
2022-08-10T05:12:29.394Z,15.90
2022-08-10T05:14:57.631Z,16.10
2022-08-10T05:17:25.645Z,16.40
2022-08-10T05:20:01.836Z,16.60
2022-08-10T05:22:33.499Z,16.90
2022-08-10T05:25:01.568Z,17.00
2022-08-10T05:27:30.922Z,17.20
2022-08-10T05:30:01.214Z,17.40
2022-08-10T05:32:29.889Z,17.70
2022-08-10T05:34:57.873Z,18.10
2022-08-10T05:38:10.038Z,18.40
2022-08-10T05:40:14.851Z,18.80
2022-08-10T05:42:44.137Z,18.70
2022-08-10T05:45:20.282Z,19.00
2022-08-10T05:48:54.048Z,19.20
2022-08-10T05:50:36.744Z,19.60
2022-08-10T05:53:59.233Z,20.00
2022-08-10T05:55:53.089Z,20.30
2022-08-10T05:58:23.542Z,20.50
2022-08-10T06:00:55.276Z,20.40
2022-08-10T06:03:27.925Z,20.80
2022-08-10T06:05:57.851Z,21.10
2022-08-10T06:08:31.941Z,21.30
2022-08-10T06:12:25.620Z,21.40
2022-08-10T06:14:28.327Z,21.10
2022-08-10T06:16:58.599Z,20.80
2022-08-10T06:19:27.119Z,20.70
2022-08-10T06:22:01.211Z,21.00
2022-08-10T06:24:31.250Z,21.10
2022-08-10T06:26:59.541Z,21.40
2022-08-10T06:29:33.112Z,21.60
2022-08-10T06:32:02.336Z,21.70
2022-08-10T06:34:33.371Z,21.90
2022-08-10T06:37:04.459Z,22.00
2022-08-10T06:39:34.475Z,22.10
2022-08-10T06:42:16.841Z,22.40
2022-08-10T06:44:57.753Z,22.60
2022-08-10T06:47:32.179Z,22.90
2022-08-10T06:50:08.654Z,23.30
2022-08-10T06:52:39.173Z,23.50
2022-08-10T06:55:10.556Z,23.70
2022-08-10T06:57:40.215Z,23.80
2022-08-10T07:00:11.428Z,23.90
2022-08-10T07:02:45.832Z,24.00
2022-08-10T07:05:20.043Z,23.90
2022-08-10T07:07:50.963Z,23.90
2022-08-10T07:10:21.049Z,24.00
2022-08-10T07:12:51.293Z,24.20
2022-08-10T07:15:21.948Z,24.30
2022-08-10T07:17:52.158Z,24.40
2022-08-10T07:20:22.102Z,24.50
2022-08-10T07:23:54.743Z,24.20
2022-08-10T07:25:44.274Z,24.20
2022-08-10T07:28:12.842Z,24.20
2022-08-10T07:30:43.257Z,24.40
2022-08-10T07:33:17.741Z,24.70
2022-08-10T07:35:46.787Z,24.90
2022-08-10T07:38:19.219Z,25.10
2022-08-10T07:40:48.445Z,25.40
2022-08-10T07:43:18.435Z,25.60
2022-08-10T07:45:48.771Z,25.70
2022-08-10T07:48:20.717Z,25.60
2022-08-10T07:50:50.236Z,25.70
2022-08-10T07:53:22.653Z,25.70
2022-08-10T07:56:05.944Z,25.70
2022-08-10T07:58:46.408Z,25.90
2022-08-10T08:01:25.073Z,26.00
2022-08-10T08:04:11.424Z,26.20
2022-08-10T08:06:41.154Z,26.50
2022-08-10T08:09:10.108Z,26.80
2022-08-10T08:11:39.682Z,26.80
2022-08-10T08:14:09.028Z,26.80
2022-08-10T08:16:41.208Z,26.80
2022-08-10T08:19:27.744Z,26.80
2022-08-10T08:24:09.033Z,26.80
2022-08-10T08:24:45.954Z,27.00
2022-08-10T08:27:16.695Z,27.10
2022-08-10T08:29:47.411Z,27.30
2022-08-10T08:32:19.435Z,27.30
2022-08-10T08:34:50.211Z,27.30
2022-08-10T08:38:33.737Z,27.40
2022-08-10T08:40:14.668Z,27.50
2022-08-10T08:43:18.852Z,27.40
2022-08-10T08:46:10.514Z,27.60
2022-08-10T08:49:09.501Z,27.60
2022-08-10T08:52:09.357Z,27.80
2022-08-10T08:54:47.637Z,27.80
2022-08-10T08:57:49.772Z,27.80
2022-08-10T09:00:20.301Z,27.70
2022-08-10T09:03:23.969Z,27.70
2022-08-10T09:06:17.009Z,27.60
2022-08-10T09:09:04.646Z,28.00
2022-08-10T09:11:46.637Z,28.20
2022-08-10T09:14:26.678Z,28.20
2022-08-10T09:17:04.625Z,28.20
2022-08-10T09:19:39.292Z,28.30
2022-08-10T09:22:19.298Z,28.30
2022-08-10T09:24:53.157Z,28.40
2022-08-10T09:27:23.872Z,28.50
2022-08-10T09:29:56.216Z,28.60
2022-08-10T09:36:17.347Z,27.90
2022-08-10T09:36:24.971Z,28.10
2022-08-10T09:38:37.306Z,28.60
2022-08-10T09:41:17.201Z,28.90
2022-08-10T09:43:56.822Z,29.20
2022-08-10T09:46:41.019Z,28.40
2022-08-10T09:49:22.496Z,28.50
2022-08-10T09:52:06.546Z,28.60
2022-08-10T09:54:49.831Z,28.90
2022-08-10T09:57:43.515Z,29.30
2022-08-10T10:00:15.833Z,29.50
2022-08-10T10:02:58.845Z,29.60
2022-08-10T10:05:35.334Z,29.70
2022-08-10T10:08:10.542Z,29.60
2022-08-10T10:10:48.025Z,29.50
2022-08-10T10:13:41.638Z,29.50
2022-08-10T10:16:34.011Z,29.50
2022-08-10T10:19:11.573Z,29.30
2022-08-10T10:21:56.254Z,29.30
2022-08-10T10:24:34.176Z,29.60
2022-08-10T10:27:16.038Z,29.80
2022-08-10T10:29:58.440Z,29.80
2022-08-10T10:32:36.721Z,30.00
2022-08-10T10:35:16.184Z,29.90
2022-08-10T10:38:10.597Z,29.90
2022-08-10T10:40:43.175Z,29.70
2022-08-10T10:43:26.190Z,30.10
2022-08-10T10:46:05.863Z,30.20
2022-08-10T10:48:46.545Z,30.40
2022-08-10T10:51:22.548Z,30.40
2022-08-10T10:54:00.762Z,30.50
2022-08-10T10:56:36.611Z,30.60
2022-08-10T10:59:54.442Z,30.20
2022-08-10T11:02:18.485Z,29.90
2022-08-10T11:04:57.201Z,29.60
2022-08-10T11:07:33.937Z,29.80
2022-08-10T11:10:31.883Z,30.00
2022-08-10T11:14:25.529Z,29.70
2022-08-10T11:16:05.402Z,29.50
2022-08-10T11:18:45.535Z,29.60
2022-08-10T11:21:21.763Z,29.80
2022-08-10T11:24:47.007Z,29.70
2022-08-10T11:26:49.849Z,29.70
2022-08-10T11:29:25.433Z,29.60
2022-08-10T11:32:01.286Z,29.70
2022-08-10T11:34:48.607Z,30.00
2022-08-10T11:38:32.899Z,29.90
2022-08-10T11:40:45.670Z,30.00
2022-08-10T11:43:21.879Z,30.10
2022-08-10T11:45:55.367Z,30.10
2022-08-10T11:48:54.477Z,30.10
2022-08-10T11:51:27.730Z,30.30
2022-08-10T11:54:04.706Z,30.60
2022-08-10T11:56:40.489Z,30.70
2022-08-10T11:59:26.649Z,30.70
2022-08-10T12:01:56.163Z,30.70
2022-08-10T12:04:30.472Z,30.50
2022-08-10T12:07:00.087Z,30.30
2022-08-10T12:10:10.126Z,30.30
2022-08-10T12:12:18.788Z,30.40
2022-08-10T12:14:56.246Z,30.70
2022-08-10T12:17:28.628Z,30.90
2022-08-10T12:20:07.950Z,30.90
2022-08-10T12:22:44.286Z,30.70
2022-08-10T12:25:54.933Z,31.00
2022-08-10T12:28:11.930Z,31.20
2022-08-10T12:30:49.208Z,31.30
2022-08-10T12:33:24.079Z,31.20
2022-08-10T12:36:18.016Z,31.20
2022-08-10T12:38:58.213Z,31.00
2022-08-10T12:41:45.096Z,30.70
2022-08-10T12:44:19.218Z,30.30
2022-08-10T12:46:55.972Z,30.30
2022-08-10T12:49:31.362Z,30.20
2022-08-10T12:52:07.137Z,30.40
2022-08-10T12:54:39.082Z,30.60
2022-08-10T12:57:12.126Z,30.70
2022-08-10T12:59:46.079Z,30.90
2022-08-10T13:02:21.006Z,31.20
2022-08-10T13:04:51.854Z,31.20
2022-08-10T13:08:24.579Z,30.90
2022-08-10T13:10:17.001Z,30.60
2022-08-10T13:12:47.765Z,30.50
2022-08-10T13:15:25.429Z,30.60
2022-08-10T13:18:18.057Z,30.40
2022-08-10T13:20:52.384Z,30.30
2022-08-10T13:23:24.784Z,30.30
2022-08-10T13:25:56.024Z,30.50
2022-08-10T13:28:36.563Z,30.60
2022-08-10T13:31:16.878Z,30.70
2022-08-10T13:34:39.244Z,30.60
2022-08-10T13:36:39.045Z,30.50
2022-08-10T13:39:10.557Z,30.60
2022-08-10T13:41:41.715Z,30.60
2022-08-10T13:44:13.262Z,30.60
2022-08-10T13:46:42.399Z,30.70
2022-08-10T13:49:12.536Z,30.70
2022-08-10T13:51:53.811Z,30.60
2022-08-10T13:54:36.492Z,30.50
2022-08-10T13:57:05.877Z,30.40
2022-08-10T14:00:34.029Z,30.10
2022-08-10T14:02:26.985Z,30.10
2022-08-10T14:04:58.685Z,30.00
2022-08-10T14:07:29.002Z,30.20
2022-08-10T14:10:07.018Z,30.30
2022-08-10T14:12:37.427Z,30.40
2022-08-10T14:15:08.155Z,30.60
2022-08-10T14:17:41.414Z,30.60
2022-08-10T14:20:19.274Z,30.40
2022-08-10T14:22:49.617Z,30.30
2022-08-10T14:25:19.015Z,30.40
2022-08-10T14:28:02.836Z,30.50
2022-08-10T14:30:34.446Z,30.40
2022-08-10T14:33:05.141Z,30.10
2022-08-10T14:36:19.626Z,30.10
2022-08-10T14:38:28.516Z,30.10
2022-08-10T14:41:01.806Z,29.90
2022-08-10T14:43:35.562Z,29.90
2022-08-10T14:46:06.922Z,29.90
2022-08-10T14:48:40.274Z,30.00
2022-08-10T14:51:10.206Z,30.00
2022-08-10T14:53:42.416Z,30.00
2022-08-10T14:56:14.364Z,29.90
2022-08-10T14:58:59.245Z,29.80
2022-08-10T15:02:38.257Z,29.80
2022-08-10T15:04:28.360Z,29.90
2022-08-10T15:07:01.150Z,29.80
2022-08-10T15:10:01.497Z,29.90
2022-08-10T15:12:27.195Z,29.80
2022-08-10T15:15:00.679Z,29.80
2022-08-10T15:17:34.989Z,29.70
2022-08-10T15:20:14.340Z,29.70
2022-08-10T15:22:50.124Z,29.60
2022-08-10T15:25:25.443Z,29.50
2022-08-10T15:28:05.027Z,29.40
2022-08-10T15:30:40.928Z,29.50
2022-08-10T15:34:02.696Z,29.50
2022-08-10T15:37:02.413Z,29.40
2022-08-10T15:40:21.422Z,29.40
2022-08-10T15:42:35.199Z,29.40
2022-08-10T15:45:06.011Z,29.20
2022-08-10T15:47:44.902Z,29.20
2022-08-10T15:50:19.799Z,29.20
2022-08-10T15:53:01.801Z,29.10
2022-08-10T15:55:44.325Z,29.20
2022-08-10T15:58:20.630Z,29.20
2022-08-10T16:02:13.027Z,29.10
2022-08-10T16:04:08.584Z,29.00
2022-08-10T16:06:42.733Z,29.00
2022-08-10T16:10:22.251Z,29.00
2022-08-10T16:12:06.882Z,29.00
2022-08-10T16:14:38.166Z,28.90
2022-08-10T16:17:11.783Z,28.80
2022-08-10T16:19:48.723Z,28.80
2022-08-10T16:22:34.163Z,28.70
2022-08-10T16:25:13.834Z,28.70
2022-08-10T16:27:44.043Z,28.60
2022-08-10T16:30:13.175Z,28.60
2022-08-10T16:32:44.947Z,28.60
2022-08-10T16:35:21.095Z,28.60
2022-08-10T16:37:58.911Z,28.60
2022-08-10T16:40:29.936Z,28.60
2022-08-10T16:43:00.985Z,28.40
2022-08-10T16:45:35.719Z,28.30
2022-08-10T16:48:06.321Z,28.30
2022-08-10T16:50:41.467Z,28.30
2022-08-10T16:53:13.874Z,28.20
2022-08-10T16:55:50.567Z,28.10
2022-08-10T16:58:25.280Z,28.20
2022-08-10T17:00:54.822Z,28.10
2022-08-10T17:04:05.463Z,28.10
2022-08-10T17:06:23.524Z,28.10
2022-08-10T17:08:55.097Z,28.20
2022-08-10T17:11:28.306Z,28.10
2022-08-10T17:13:57.350Z,27.90
2022-08-10T17:16:27.186Z,27.80
2022-08-10T17:18:59.351Z,27.80
2022-08-10T17:21:32.426Z,27.80
2022-08-10T17:24:03.817Z,27.70
2022-08-10T17:26:35.697Z,27.60
2022-08-10T17:29:50.520Z,27.50
2022-08-10T17:32:01.744Z,27.60
2022-08-10T17:34:34.825Z,27.50
2022-08-10T17:37:06.484Z,27.50
2022-08-10T17:39:41.222Z,27.50
2022-08-10T17:42:10.166Z,27.50
2022-08-10T17:44:40.830Z,27.50
2022-08-10T17:47:11.714Z,27.50
2022-08-10T17:49:42.274Z,27.50
2022-08-10T17:52:12.470Z,27.40
2022-08-10T17:54:45.207Z,27.30
2022-08-10T17:57:18.434Z,27.20
2022-08-10T17:59:47.916Z,27.20
2022-08-10T18:02:19.740Z,27.10
2022-08-10T18:04:52.182Z,27.10
2022-08-10T18:07:23.874Z,27.00
2022-08-10T18:09:54.378Z,26.90
2022-08-10T18:12:30.915Z,26.90
2022-08-10T18:15:12.001Z,26.90
2022-08-10T18:17:45.666Z,26.80
2022-08-10T18:20:20.355Z,26.70
2022-08-10T18:22:58.323Z,26.80
2022-08-10T18:25:32.036Z,26.70
2022-08-10T18:28:04.828Z,26.60
2022-08-10T18:30:37.002Z,26.60
2022-08-10T18:33:11.849Z,26.40
2022-08-10T18:35:42.743Z,26.30
2022-08-10T18:38:13.097Z,26.30
2022-08-10T18:40:45.146Z,26.20
2022-08-10T18:44:07.648Z,26.20
2022-08-10T18:46:12.706Z,26.10
2022-08-10T18:48:46.339Z,26.10
2022-08-10T18:51:20.118Z,25.90
2022-08-10T18:53:54.880Z,26.00
2022-08-10T18:56:41.518Z,25.90
2022-08-10T18:59:23.928Z,25.70
2022-08-10T19:02:08.270Z,25.50
2022-08-10T19:04:51.209Z,25.30
2022-08-10T19:07:41.411Z,25.10
2022-08-10T19:10:17.764Z,25.00
2022-08-10T19:12:53.093Z,24.90
2022-08-10T19:15:28.878Z,24.80
2022-08-10T19:18:08.036Z,25.00
2022-08-10T19:20:44.592Z,24.90
2022-08-10T19:23:47.789Z,24.90
2022-08-10T19:26:43.723Z,24.70
2022-08-10T19:30:11.054Z,24.40
2022-08-10T19:32:38.633Z,24.40
2022-08-10T19:35:17.089Z,24.30
2022-08-10T19:38:00.386Z,24.20
2022-08-10T19:40:44.722Z,24.10
2022-08-10T19:43:30.810Z,23.90
2022-08-10T19:46:18.786Z,23.90
2022-08-10T19:48:54.559Z,23.80
2022-08-10T19:51:29.849Z,23.80
2022-08-10T19:54:05.992Z,23.80
2022-08-10T19:56:44.820Z,23.60
2022-08-10T20:00:16.384Z,23.70
2022-08-10T20:02:22.737Z,23.70
2022-08-10T20:04:58.445Z,23.60
2022-08-10T20:07:35.313Z,23.40
2022-08-10T20:10:12.579Z,23.30
2022-08-10T20:12:50.509Z,23.20
2022-08-10T20:15:28.771Z,23.00
2022-08-10T20:18:00.553Z,22.90
2022-08-10T20:20:35.825Z,22.80
2022-08-10T20:23:13.806Z,22.80
2022-08-10T20:25:47.390Z,22.80
2022-08-10T20:28:20.988Z,22.70
2022-08-10T20:30:53.968Z,22.60
2022-08-10T20:33:29.238Z,22.70
2022-08-10T20:36:04.333Z,22.60
2022-08-10T20:38:39.630Z,22.50
2022-08-10T20:41:25.187Z,22.40
2022-08-10T20:44:12.084Z,22.40
2022-08-10T20:46:51.474Z,22.20
2022-08-10T20:49:26.675Z,22.00
2022-08-10T20:52:00.346Z,22.00
2022-08-10T20:54:32.530Z,22.00
2022-08-10T20:57:55.282Z,21.90
2022-08-10T21:00:23.049Z,21.80
2022-08-10T21:03:20.859Z,21.60
2022-08-10T21:06:00.779Z,21.40
2022-08-10T21:08:43.728Z,21.30
2022-08-10T21:11:18.724Z,21.30
2022-08-10T21:14:08.813Z,21.20
2022-08-10T21:16:57.943Z,21.10
2022-08-10T21:19:55.921Z,21.10
2022-08-10T21:22:29.313Z,21.10
2022-08-10T21:25:03.104Z,21.10
2022-08-10T21:27:55.376Z,21.00
2022-08-10T21:30:30.622Z,21.00
2022-08-10T21:33:05.661Z,20.90
2022-08-10T21:35:38.344Z,20.90
2022-08-10T21:38:16.830Z,20.90
2022-08-10T21:41:28.120Z,20.80
2022-08-10T21:44:42.613Z,20.70
2022-08-10T21:47:42.456Z,20.80
2022-08-10T21:50:49.483Z,20.70
2022-08-10T21:53:43.833Z,20.60
2022-08-10T21:56:38.704Z,20.60
2022-08-10T21:59:29.324Z,20.40
2022-08-10T22:02:28.288Z,20.30
2022-08-10T22:05:20.146Z,20.30
2022-08-10T22:08:12.284Z,20.40
2022-08-10T22:11:02.884Z,20.20
2022-08-10T22:13:50.604Z,20.20
2022-08-10T22:16:44.990Z,20.10
2022-08-10T22:19:31.545Z,20.10
2022-08-10T22:22:28.241Z,19.90
2022-08-10T22:25:39.530Z,19.90
2022-08-10T22:28:25.266Z,19.80
2022-08-10T22:31:32.328Z,19.80
2022-08-10T22:34:33.336Z,19.70
2022-08-10T22:37:32.944Z,19.70
2022-08-10T22:40:23.778Z,19.60
2022-08-10T22:43:13.130Z,19.50
2022-08-10T22:46:06.391Z,19.60
2022-08-10T22:48:59.533Z,19.60
2022-08-10T22:51:37.258Z,19.50
2022-08-10T22:54:30.857Z,19.40
2022-08-10T22:57:19.594Z,19.30
2022-08-10T22:59:49.255Z,19.30
2022-08-10T23:02:27.731Z,19.20
2022-08-10T23:04:59.488Z,19.10
2022-08-10T23:07:31.211Z,19.00
2022-08-10T23:10:03.991Z,19.00
2022-08-10T23:12:41.650Z,18.90
2022-08-10T23:15:38.242Z,19.00
2022-08-10T23:18:28.903Z,18.90
2022-08-10T23:20:58.953Z,18.80
2022-08-10T23:23:28.761Z,18.70
2022-08-10T23:26:01.299Z,18.60
2022-08-10T23:28:38.343Z,18.60
2022-08-10T23:31:10.952Z,18.60
2022-08-10T23:33:40.237Z,18.60
2022-08-10T23:36:32.599Z,18.60
2022-08-10T23:39:26.862Z,18.50
2022-08-10T23:41:54.817Z,18.50
2022-08-10T23:44:25.670Z,18.50
2022-08-10T23:46:54.620Z,18.50
2022-08-10T23:49:24.377Z,18.40
2022-08-10T23:51:56.357Z,18.40
2022-08-10T23:54:25.900Z,18.30
2022-08-10T23:57:01.291Z,18.40
2022-08-10T23:59:32.920Z,18.40
